sensor_id;sensor_type;location;lat;lon;timestamp;P1;durP1;ratioP1;P2;durP2;ratioP2
15921;SDS011;8060;50.948;3.146;2022-09-09T07:14:02;13.67;;;3.77;;
15921;SDS011;8060;50.948;3.146;2022-09-09T07:16:30;16.50;;;4.00;;
15921;SDS011;8060;50.948;3.146;2022-09-09T07:18:59;19.20;;;3.80;;
15921;SDS011;8060;50.948;3.146;2022-09-09T07:21:29;22.67;;;4.47;;
15921;SDS011;8060;50.948;3.146;2022-09-09T07:23:58;17.30;;;3.47;;
15921;SDS011;8060;50.948;3.146;2022-09-09T07:26:28;19.60;;;4.30;;
15921;SDS011;8060;50.948;3.146;2022-09-09T07:28:57;17.40;;;4.13;;
15921;SDS011;8060;50.948;3.146;2022-09-09T07:31:28;19.70;;;3.70;;
15921;SDS011;8060;50.948;3.146;2022-09-09T07:33:57;10.53;;;3.33;;
15921;SDS011;8060;50.948;3.146;2022-09-09T07:36:27;20.23;;;3.53;;
15921;SDS011;8060;50.948;3.146;2022-09-09T07:38:59;18.10;;;4.07;;
15921;SDS011;8060;50.948;3.146;2022-09-09T07:41:29;15.03;;;3.60;;
15921;SDS011;8060;50.948;3.146;2022-09-09T07:44:03;13.90;;;3.63;;
15921;SDS011;8060;50.948;3.146;2022-09-09T07:46:34;11.10;;;3.47;;
15921;SDS011;8060;50.948;3.146;2022-09-09T07:49:03;14.83;;;3.30;;
15921;SDS011;8060;50.948;3.146;2022-09-09T07:51:32;14.83;;;3.60;;
15921;SDS011;8060;50.948;3.146;2022-09-09T07:54:02;17.67;;;3.23;;
15921;SDS011;8060;50.948;3.146;2022-09-09T07:56:32;13.07;;;3.57;;
15921;SDS011;8060;50.948;3.146;2022-09-09T07:59:00;12.90;;;2.90;;
15921;SDS011;8060;50.948;3.146;2022-09-09T08:01:31;13.17;;;3.07;;
15921;SDS011;8060;50.948;3.146;2022-09-09T08:04:03;16.23;;;3.27;;
15921;SDS011;8060;50.948;3.146;2022-09-09T08:06:34;16.90;;;3.80;;
15921;SDS011;8060;50.948;3.146;2022-09-09T08:09:04;12.07;;;3.00;;
15921;SDS011;8060;50.948;3.146;2022-09-09T08:11:33;18.23;;;3.23;;
15921;SDS011;8060;50.948;3.146;2022-09-09T08:14:04;12.47;;;3.07;;
15921;SDS011;8060;50.948;3.146;2022-09-09T08:16:34;10.77;;;3.07;;
15921;SDS011;8060;50.948;3.146;2022-09-09T08:19:05;10.80;;;3.00;;
15921;SDS011;8060;50.948;3.146;2022-09-09T08:21:34;15.40;;;2.63;;
15921;SDS011;8060;50.948;3.146;2022-09-09T08:24:04;12.53;;;3.70;;
15921;SDS011;8060;50.948;3.146;2022-09-09T08:26:34;21.83;;;3.73;;
15921;SDS011;8060;50.948;3.146;2022-09-09T08:29:05;10.13;;;3.20;;
15921;SDS011;8060;50.948;3.146;2022-09-09T08:31:35;12.67;;;2.60;;
15921;SDS011;8060;50.948;3.146;2022-09-09T08:34:06;8.83;;;2.60;;
15921;SDS011;8060;50.948;3.146;2022-09-09T08:36:37;10.87;;;2.53;;
15921;SDS011;8060;50.948;3.146;2022-09-09T08:39:06;8.60;;;2.43;;
15921;SDS011;8060;50.948;3.146;2022-09-09T08:41:49;6.90;;;2.27;;
15921;SDS011;8060;50.948;3.146;2022-09-09T08:44:31;7.57;;;2.23;;
15921;SDS011;8060;50.948;3.146;2022-09-09T08:47:16;5.80;;;1.93;;
15921;SDS011;8060;50.948;3.146;2022-09-09T08:49:56;5.63;;;2.33;;
15921;SDS011;8060;50.948;3.146;2022-09-09T08:52:36;8.13;;;2.33;;
15921;SDS011;8060;50.948;3.146;2022-09-09T08:55:12;9.20;;;2.37;;
15921;SDS011;8060;50.948;3.146;2022-09-09T08:57:48;8.53;;;2.13;;
15921;SDS011;8060;50.948;3.146;2022-09-09T09:00:19;9.83;;;2.13;;
15921;SDS011;8060;50.948;3.146;2022-09-09T09:02:48;8.20;;;2.10;;
15921;SDS011;8060;50.948;3.146;2022-09-09T09:05:31;5.80;;;1.90;;
15921;SDS011;8060;50.948;3.146;2022-09-09T09:08:07;8.33;;;1.97;;
15921;SDS011;8060;50.948;3.146;2022-09-09T09:10:46;7.13;;;2.37;;
15921;SDS011;8060;50.948;3.146;2022-09-09T09:13:17;5.63;;;2.13;;
15921;SDS011;8060;50.948;3.146;2022-09-09T09:15:49;8.57;;;1.60;;
15921;SDS011;8060;50.948;3.146;2022-09-09T09:18:21;5.23;;;1.97;;
15921;SDS011;8060;50.948;3.146;2022-09-09T09:20:56;12.17;;;2.23;;
15921;SDS011;8060;50.948;3.146;2022-09-09T09:23:33;7.67;;;1.70;;
15921;SDS011;8060;50.948;3.146;2022-09-09T09:26:09;6.20;;;1.80;;
15921;SDS011;8060;50.948;3.146;2022-09-09T09:28:38;6.63;;;1.67;;
15921;SDS011;8060;50.948;3.146;2022-09-09T09:31:08;4.87;;;1.90;;
15921;SDS011;8060;50.948;3.146;2022-09-09T09:33:44;7.50;;;1.70;;
15921;SDS011;8060;50.948;3.146;2022-09-09T09:36:17;6.13;;;1.60;;
15921;SDS011;8060;50.948;3.146;2022-09-09T09:38:52;4.13;;;1.60;;
15921;SDS011;8060;50.948;3.146;2022-09-09T09:41:42;6.57;;;1.60;;
15921;SDS011;8060;50.948;3.146;2022-09-09T09:44:21;6.43;;;1.80;;
15921;SDS011;8060;50.948;3.146;2022-09-09T09:46:50;4.27;;;1.40;;
15921;SDS011;8060;50.948;3.146;2022-09-09T09:49:19;6.47;;;1.70;;
15921;SDS011;8060;50.948;3.146;2022-09-09T09:51:48;4.37;;;1.20;;
15921;SDS011;8060;50.948;3.146;2022-09-09T09:54:24;7.00;;;1.33;;
15921;SDS011;8060;50.948;3.146;2022-09-09T09:56:56;5.67;;;1.23;;
15921;SDS011;8060;50.948;3.146;2022-09-09T09:59:35;3.80;;;1.10;;
15921;SDS011;8060;50.948;3.146;2022-09-09T10:02:16;8.23;;;1.50;;
15921;SDS011;8060;50.948;3.146;2022-09-09T10:04:46;3.80;;;1.10;;
15921;SDS011;8060;50.948;3.146;2022-09-09T10:07:18;8.57;;;1.53;;
15921;SDS011;8060;50.948;3.146;2022-09-09T10:09:48;8.83;;;1.53;;
15921;SDS011;8060;50.948;3.146;2022-09-09T10:12:24;14.20;;;1.93;;
15921;SDS011;8060;50.948;3.146;2022-09-09T10:15:01;6.87;;;1.23;;
15921;SDS011;8060;50.948;3.146;2022-09-09T10:17:36;7.07;;;1.50;;
15921;SDS011;8060;50.948;3.146;2022-09-09T10:20:16;4.90;;;1.30;;
15921;SDS011;8060;50.948;3.146;2022-09-09T10:22:52;5.93;;;1.20;;
15921;SDS011;8060;50.948;3.146;2022-09-09T10:25:32;3.53;;;1.00;;
15921;SDS011;8060;50.948;3.146;2022-09-09T10:31:03;4.57;;;1.10;;
15921;SDS011;8060;50.948;3.146;2022-09-09T10:33:40;3.63;;;1.20;;
15921;SDS011;8060;50.948;3.146;2022-09-09T10:36:16;5.83;;;1.50;;
15921;SDS011;8060;50.948;3.146;2022-09-09T10:38:50;6.23;;;1.70;;
15921;SDS011;8060;50.948;3.146;2022-09-09T10:41:30;6.20;;;1.70;;
15921;SDS011;8060;50.948;3.146;2022-09-09T10:44:11;7.77;;;1.50;;
15921;SDS011;8060;50.948;3.146;2022-09-09T10:46:52;7.97;;;1.70;;
15921;SDS011;8060;50.948;3.146;2022-09-09T10:49:51;6.03;;;1.23;;
15921;SDS011;8060;50.948;3.146;2022-09-09T10:52:36;9.80;;;1.90;;
15921;SDS011;8060;50.948;3.146;2022-09-09T10:55:11;8.23;;;1.70;;
15921;SDS011;8060;50.948;3.146;2022-09-09T10:57:43;4.03;;;1.20;;
15921;SDS011;8060;50.948;3.146;2022-09-09T11:00:15;5.27;;;1.30;;
15921;SDS011;8060;50.948;3.146;2022-09-09T11:02:47;6.03;;;1.40;;
15921;SDS011;8060;50.948;3.146;2022-09-09T11:05:20;5.00;;;1.10;;
15921;SDS011;8060;50.948;3.146;2022-09-09T11:07:52;6.90;;;1.23;;
15921;SDS011;8060;50.948;3.146;2022-09-09T11:10:26;3.70;;;1.17;;
15921;SDS011;8060;50.948;3.146;2022-09-09T11:13:03;5.00;;;1.13;;
15921;SDS011;8060;50.948;3.146;2022-09-09T11:15:39;7.57;;;1.90;;
15921;SDS011;8060;50.948;3.146;2022-09-09T11:18:11;6.33;;;1.50;;
15921;SDS011;8060;50.948;3.146;2022-09-09T11:20:45;5.17;;;1.40;;
15921;SDS011;8060;50.948;3.146;2022-09-09T11:23:17;5.53;;;1.33;;
15921;SDS011;8060;50.948;3.146;2022-09-09T11:25:53;3.60;;;1.10;;
15921;SDS011;8060;50.948;3.146;2022-09-09T11:28:27;4.13;;;1.40;;
15921;SDS011;8060;50.948;3.146;2022-09-09T11:31:11;5.10;;;1.17;;
15921;SDS011;8060;50.948;3.146;2022-09-09T11:33:56;4.10;;;1.47;;
15921;SDS011;8060;50.948;3.146;2022-09-09T11:36:43;5.67;;;1.30;;
15921;SDS011;8060;50.948;3.146;2022-09-09T11:39:36;7.13;;;1.70;;
15921;SDS011;8060;50.948;3.146;2022-09-09T11:42:20;5.80;;;1.50;;
15921;SDS011;8060;50.948;3.146;2022-09-09T11:44:50;4.07;;;1.50;;
15921;SDS011;8060;50.948;3.146;2022-09-09T11:47:20;7.50;;;1.67;;
15921;SDS011;8060;50.948;3.146;2022-09-09T11:50:06;5.73;;;1.57;;
15921;SDS011;8060;50.948;3.146;2022-09-09T11:52:37;7.40;;;1.60;;
15921;SDS011;8060;50.948;3.146;2022-09-09T11:55:09;9.10;;;2.03;;
15921;SDS011;8060;50.948;3.146;2022-09-09T11:57:40;7.00;;;1.67;;
15921;SDS011;8060;50.948;3.146;2022-09-09T12:03:02;8.47;;;1.97;;
15921;SDS011;8060;50.948;3.146;2022-09-09T12:05:37;10.60;;;2.63;;
15921;SDS011;8060;50.948;3.146;2022-09-09T12:08:07;12.27;;;2.40;;
15921;SDS011;8060;50.948;3.146;2022-09-09T12:10:39;10.30;;;2.63;;
15921;SDS011;8060;50.948;3.146;2022-09-09T12:13:13;10.27;;;2.07;;
15921;SDS011;8060;50.948;3.146;2022-09-09T12:15:46;10.90;;;2.00;;
15921;SDS011;8060;50.948;3.146;2022-09-09T12:18:16;7.30;;;1.93;;
15921;SDS011;8060;50.948;3.146;2022-09-09T12:20:53;6.40;;;2.27;;
15921;SDS011;8060;50.948;3.146;2022-09-09T12:23:33;8.87;;;2.40;;
15921;SDS011;8060;50.948;3.146;2022-09-09T12:26:19;4.77;;;1.87;;
15921;SDS011;8060;50.948;3.146;2022-09-09T12:28:58;5.63;;;2.03;;
15921;SDS011;8060;50.948;3.146;2022-09-09T12:31:35;5.80;;;2.03;;
15921;SDS011;8060;50.948;3.146;2022-09-09T12:34:11;8.30;;;2.00;;
15921;SDS011;8060;50.948;3.146;2022-09-09T12:36:43;9.27;;;2.50;;
15921;SDS011;8060;50.948;3.146;2022-09-09T12:39:19;6.53;;;2.40;;
15921;SDS011;8060;50.948;3.146;2022-09-09T12:41:55;8.67;;;2.10;;
15921;SDS011;8060;50.948;3.146;2022-09-09T12:44:25;12.00;;;4.03;;
15921;SDS011;8060;50.948;3.146;2022-09-09T12:46:55;5.90;;;2.07;;
15921;SDS011;8060;50.948;3.146;2022-09-09T12:49:28;7.30;;;2.03;;
15921;SDS011;8060;50.948;3.146;2022-09-09T12:52:01;6.40;;;2.30;;
15921;SDS011;8060;50.948;3.146;2022-09-09T12:54:32;7.33;;;2.60;;
15921;SDS011;8060;50.948;3.146;2022-09-09T12:57:02;10.67;;;2.73;;
15921;SDS011;8060;50.948;3.146;2022-09-09T12:59:36;10.37;;;2.67;;
15921;SDS011;8060;50.948;3.146;2022-09-09T13:02:11;5.97;;;1.93;;
15921;SDS011;8060;50.948;3.146;2022-09-09T13:04:45;7.47;;;2.00;;
15921;SDS011;8060;50.948;3.146;2022-09-09T13:07:17;6.43;;;1.90;;
15921;SDS011;8060;50.948;3.146;2022-09-09T13:09:46;5.77;;;1.80;;
15921;SDS011;8060;50.948;3.146;2022-09-09T13:12:16;7.50;;;2.03;;
15921;SDS011;8060;50.948;3.146;2022-09-09T13:14:48;10.03;;;2.47;;
15921;SDS011;8060;50.948;3.146;2022-09-09T13:17:19;7.93;;;2.10;;
15921;SDS011;8060;50.948;3.146;2022-09-09T13:19:49;9.03;;;1.90;;
15921;SDS011;8060;50.948;3.146;2022-09-09T13:22:23;7.87;;;3.07;;
15921;SDS011;8060;50.948;3.146;2022-09-09T13:25:02;8.87;;;2.30;;
15921;SDS011;8060;50.948;3.146;2022-09-09T13:27:33;9.43;;;2.47;;
15921;SDS011;8060;50.948;3.146;2022-09-09T13:30:20;8.17;;;2.20;;
15921;SDS011;8060;50.948;3.146;2022-09-09T13:33:00;9.33;;;2.30;;
15921;SDS011;8060;50.948;3.146;2022-09-09T13:35:29;7.47;;;2.60;;
15921;SDS011;8060;50.948;3.146;2022-09-09T13:37:59;5.00;;;2.40;;
15921;SDS011;8060;50.948;3.146;2022-09-09T13:40:34;5.97;;;2.27;;
15921;SDS011;8060;50.948;3.146;2022-09-09T13:43:03;4.67;;;2.03;;
15921;SDS011;8060;50.948;3.146;2022-09-09T13:45:33;8.27;;;2.43;;
15921;SDS011;8060;50.948;3.146;2022-09-09T13:48:08;7.60;;;2.17;;
15921;SDS011;8060;50.948;3.146;2022-09-09T13:50:39;6.83;;;1.80;;
15921;SDS011;8060;50.948;3.146;2022-09-09T13:53:08;7.83;;;2.00;;
15921;SDS011;8060;50.948;3.146;2022-09-09T13:55:36;7.13;;;2.07;;
15921;SDS011;8060;50.948;3.146;2022-09-09T13:58:05;7.30;;;2.93;;
15921;SDS011;8060;50.948;3.146;2022-09-09T14:00:35;6.43;;;2.17;;
15921;SDS011;8060;50.948;3.146;2022-09-09T14:03:04;4.67;;;1.80;;
15921;SDS011;8060;50.948;3.146;2022-09-09T14:05:33;5.13;;;1.33;;
15921;SDS011;8060;50.948;3.146;2022-09-09T14:08:03;5.47;;;1.10;;
15921;SDS011;8060;50.948;3.146;2022-09-09T14:10:32;6.30;;;1.30;;
15921;SDS011;8060;50.948;3.146;2022-09-09T14:13:02;10.33;;;1.40;;
15921;SDS011;8060;50.948;3.146;2022-09-09T14:15:30;5.03;;;1.40;;
15921;SDS011;8060;50.948;3.146;2022-09-09T14:17:59;4.47;;;1.10;;
15921;SDS011;8060;50.948;3.146;2022-09-09T14:20:28;4.43;;;1.10;;
15921;SDS011;8060;50.948;3.146;2022-09-09T14:22:56;4.17;;;1.20;;
15921;SDS011;8060;50.948;3.146;2022-09-09T14:25:28;3.53;;;1.37;;
15921;SDS011;8060;50.948;3.146;2022-09-09T14:27:57;6.70;;;1.27;;
15921;SDS011;8060;50.948;3.146;2022-09-09T14:30:25;3.17;;;1.17;;
15921;SDS011;8060;50.948;3.146;2022-09-09T14:32:54;8.37;;;1.40;;
15921;SDS011;8060;50.948;3.146;2022-09-09T14:35:23;9.43;;;1.67;;
15921;SDS011;8060;50.948;3.146;2022-09-09T14:37:51;3.77;;;1.10;;
15921;SDS011;8060;50.948;3.146;2022-09-09T14:40:19;5.23;;;1.00;;
15921;SDS011;8060;50.948;3.146;2022-09-09T14:42:47;4.50;;;1.30;;
15921;SDS011;8060;50.948;3.146;2022-09-09T14:45:16;6.33;;;1.40;;
15921;SDS011;8060;50.948;3.146;2022-09-09T14:47:44;5.20;;;1.40;;
15921;SDS011;8060;50.948;3.146;2022-09-09T14:50:12;6.57;;;1.43;;
15921;SDS011;8060;50.948;3.146;2022-09-09T14:52:42;4.80;;;1.40;;
15921;SDS011;8060;50.948;3.146;2022-09-09T14:55:10;4.30;;;1.60;;
15921;SDS011;8060;50.948;3.146;2022-09-09T14:57:38;4.97;;;1.83;;
15921;SDS011;8060;50.948;3.146;2022-09-09T15:00:07;9.13;;;1.53;;
15921;SDS011;8060;50.948;3.146;2022-09-09T15:02:36;4.57;;;1.43;;
15921;SDS011;8060;50.948;3.146;2022-09-09T15:05:05;6.80;;;1.40;;
15921;SDS011;8060;50.948;3.146;2022-09-09T15:07:34;7.20;;;2.00;;
15921;SDS011;8060;50.948;3.146;2022-09-09T15:10:04;4.47;;;1.70;;
15921;SDS011;8060;50.948;3.146;2022-09-09T15:12:33;7.40;;;2.27;;
15921;SDS011;8060;50.948;3.146;2022-09-09T15:15:02;7.03;;;2.07;;
15921;SDS011;8060;50.948;3.146;2022-09-09T15:17:31;5.93;;;2.03;;
15921;SDS011;8060;50.948;3.146;2022-09-09T15:19:59;5.87;;;1.97;;
15921;SDS011;8060;50.948;3.146;2022-09-09T15:22:27;7.57;;;2.40;;
15921;SDS011;8060;50.948;3.146;2022-09-09T15:24:56;7.90;;;2.10;;
15921;SDS011;8060;50.948;3.146;2022-09-09T15:27:25;6.10;;;2.57;;
15921;SDS011;8060;50.948;3.146;2022-09-09T15:29:54;7.43;;;2.90;;
15921;SDS011;8060;50.948;3.146;2022-09-09T15:32:22;5.57;;;2.50;;
15921;SDS011;8060;50.948;3.146;2022-09-09T15:34:51;7.00;;;2.47;;
15921;SDS011;8060;50.948;3.146;2022-09-09T15:37:19;7.73;;;3.13;;
15921;SDS011;8060;50.948;3.146;2022-09-09T15:39:47;6.07;;;2.83;;
15921;SDS011;8060;50.948;3.146;2022-09-09T15:42:16;10.17;;;3.13;;
15921;SDS011;8060;50.948;3.146;2022-09-09T15:44:45;10.53;;;3.37;;
15921;SDS011;8060;50.948;3.146;2022-09-09T15:47:13;7.17;;;2.70;;
15921;SDS011;8060;50.948;3.146;2022-09-09T15:49:42;7.23;;;2.80;;
15921;SDS011;8060;50.948;3.146;2022-09-09T15:52:11;6.00;;;2.17;;
15921;SDS011;8060;50.948;3.146;2022-09-09T15:54:39;7.07;;;2.17;;
15921;SDS011;8060;50.948;3.146;2022-09-09T15:57:11;10.40;;;2.43;;
15921;SDS011;8060;50.948;3.146;2022-09-09T15:59:39;7.73;;;2.20;;
15921;SDS011;8060;50.948;3.146;2022-09-09T16:02:09;5.57;;;1.70;;
15921;SDS011;8060;50.948;3.146;2022-09-09T16:04:37;5.23;;;1.60;;
15921;SDS011;8060;50.948;3.146;2022-09-09T16:07:06;4.40;;;1.63;;
15921;SDS011;8060;50.948;3.146;2022-09-09T16:09:34;10.17;;;2.10;;
15921;SDS011;8060;50.948;3.146;2022-09-09T16:12:03;5.57;;;1.80;;
15921;SDS011;8060;50.948;3.146;2022-09-09T16:14:35;5.20;;;1.63;;
15921;SDS011;8060;50.948;3.146;2022-09-09T16:17:05;6.93;;;2.43;;
15921;SDS011;8060;50.948;3.146;2022-09-09T16:19:35;8.47;;;1.50;;
15921;SDS011;8060;50.948;3.146;2022-09-09T16:22:03;8.77;;;2.03;;
15921;SDS011;8060;50.948;3.146;2022-09-09T16:24:32;11.23;;;2.10;;
15921;SDS011;8060;50.948;3.146;2022-09-09T16:27:00;9.40;;;2.03;;
15921;SDS011;8060;50.948;3.146;2022-09-09T16:29:28;8.17;;;1.90;;
15921;SDS011;8060;50.948;3.146;2022-09-09T16:31:57;7.03;;;1.50;;
15921;SDS011;8060;50.948;3.146;2022-09-09T16:34:29;10.83;;;2.20;;
15921;SDS011;8060;50.948;3.146;2022-09-09T16:37:01;16.97;;;1.97;;
15921;SDS011;8060;50.948;3.146;2022-09-09T16:39:29;11.63;;;1.53;;
15921;SDS011;8060;50.948;3.146;2022-09-09T16:41:57;8.83;;;1.93;;
15921;SDS011;8060;50.948;3.146;2022-09-09T16:44:26;10.43;;;1.80;;
15921;SDS011;8060;50.948;3.146;2022-09-09T16:46:54;8.67;;;1.93;;
15921;SDS011;8060;50.948;3.146;2022-09-09T16:49:26;9.13;;;1.53;;
15921;SDS011;8060;50.948;3.146;2022-09-09T16:51:56;8.87;;;1.60;;
15921;SDS011;8060;50.948;3.146;2022-09-09T16:54:27;8.80;;;1.63;;
15921;SDS011;8060;50.948;3.146;2022-09-09T16:56:55;9.87;;;1.70;;
15921;SDS011;8060;50.948;3.146;2022-09-09T16:59:23;16.10;;;2.33;;
15921;SDS011;8060;50.948;3.146;2022-09-09T17:01:52;9.60;;;2.03;;
15921;SDS011;8060;50.948;3.146;2022-09-09T17:04:21;10.17;;;1.87;;
15921;SDS011;8060;50.948;3.146;2022-09-09T17:06:53;9.87;;;1.60;;
15921;SDS011;8060;50.948;3.146;2022-09-09T17:09:22;9.30;;;1.90;;
15921;SDS011;8060;50.948;3.146;2022-09-09T17:11:56;10.40;;;2.07;;
15921;SDS011;8060;50.948;3.146;2022-09-09T17:14:24;7.73;;;1.57;;
15921;SDS011;8060;50.948;3.146;2022-09-09T17:16:52;9.90;;;1.80;;
15921;SDS011;8060;50.948;3.146;2022-09-09T17:19:21;13.07;;;2.27;;
15921;SDS011;8060;50.948;3.146;2022-09-09T17:21:49;12.73;;;2.10;;
15921;SDS011;8060;50.948;3.146;2022-09-09T17:24:37;14.00;;;2.20;;
15921;SDS011;8060;50.948;3.146;2022-09-09T17:27:08;11.17;;;2.83;;
15921;SDS011;8060;50.948;3.146;2022-09-09T17:29:36;10.03;;;1.90;;
15921;SDS011;8060;50.948;3.146;2022-09-09T17:32:04;12.50;;;2.10;;
15921;SDS011;8060;50.948;3.146;2022-09-09T17:34:33;10.40;;;1.80;;
15921;SDS011;8060;50.948;3.146;2022-09-09T17:37:02;11.10;;;1.97;;
15921;SDS011;8060;50.948;3.146;2022-09-09T17:39:32;9.53;;;1.53;;
15921;SDS011;8060;50.948;3.146;2022-09-09T17:42:00;7.47;;;1.50;;
15921;SDS011;8060;50.948;3.146;2022-09-09T17:44:30;11.17;;;1.77;;
15921;SDS011;8060;50.948;3.146;2022-09-09T17:46:59;11.27;;;2.10;;
15921;SDS011;8060;50.948;3.146;2022-09-09T17:49:30;11.17;;;1.93;;
15921;SDS011;8060;50.948;3.146;2022-09-09T17:51:58;9.70;;;1.47;;
15921;SDS011;8060;50.948;3.146;2022-09-09T17:54:26;6.00;;;1.40;;
15921;SDS011;8060;50.948;3.146;2022-09-09T17:56:54;6.43;;;1.33;;
15921;SDS011;8060;50.948;3.146;2022-09-09T17:59:23;9.40;;;2.30;;
15921;SDS011;8060;50.948;3.146;2022-09-09T18:01:54;10.57;;;1.70;;
15921;SDS011;8060;50.948;3.146;2022-09-09T18:04:26;12.67;;;1.50;;
15921;SDS011;8060;50.948;3.146;2022-09-09T18:06:58;10.63;;;1.30;;
15921;SDS011;8060;50.948;3.146;2022-09-09T18:09:27;10.80;;;1.70;;
15921;SDS011;8060;50.948;3.146;2022-09-09T18:11:56;13.03;;;1.70;;
15921;SDS011;8060;50.948;3.146;2022-09-09T18:14:26;8.90;;;1.47;;
15921;SDS011;8060;50.948;3.146;2022-09-09T18:16:58;9.17;;;1.90;;
15921;SDS011;8060;50.948;3.146;2022-09-09T18:19:27;10.43;;;1.80;;
15921;SDS011;8060;50.948;3.146;2022-09-09T18:21:58;12.00;;;1.70;;
15921;SDS011;8060;50.948;3.146;2022-09-09T18:24:28;11.50;;;1.97;;
15921;SDS011;8060;50.948;3.146;2022-09-09T18:26:57;11.20;;;2.00;;
15921;SDS011;8060;50.948;3.146;2022-09-09T18:29:25;17.77;;;2.43;;
15921;SDS011;8060;50.948;3.146;2022-09-09T18:31:53;11.33;;;2.17;;
15921;SDS011;8060;50.948;3.146;2022-09-09T18:34:23;9.67;;;1.53;;
15921;SDS011;8060;50.948;3.146;2022-09-09T18:36:54;9.40;;;2.13;;
15921;SDS011;8060;50.948;3.146;2022-09-09T18:39:23;9.17;;;1.70;;
15921;SDS011;8060;50.948;3.146;2022-09-09T18:41:54;15.43;;;1.70;;
15921;SDS011;8060;50.948;3.146;2022-09-09T18:44:25;13.20;;;1.90;;
15921;SDS011;8060;50.948;3.146;2022-09-09T18:46:55;10.60;;;1.60;;
15921;SDS011;8060;50.948;3.146;2022-09-09T18:49:25;9.40;;;1.50;;
15921;SDS011;8060;50.948;3.146;2022-09-09T18:51:53;11.07;;;1.40;;
15921;SDS011;8060;50.948;3.146;2022-09-09T18:54:23;8.83;;;1.57;;
15921;SDS011;8060;50.948;3.146;2022-09-09T18:56:55;14.17;;;1.83;;
15921;SDS011;8060;50.948;3.146;2022-09-09T18:59:23;10.93;;;1.80;;
15921;SDS011;8060;50.948;3.146;2022-09-09T19:01:51;8.43;;;2.10;;
15921;SDS011;8060;50.948;3.146;2022-09-09T19:04:20;19.10;;;2.80;;
15921;SDS011;8060;50.948;3.146;2022-09-09T19:06:51;10.00;;;1.47;;
15921;SDS011;8060;50.948;3.146;2022-09-09T19:09:24;8.43;;;1.50;;
15921;SDS011;8060;50.948;3.146;2022-09-09T19:11:54;7.47;;;1.47;;
15921;SDS011;8060;50.948;3.146;2022-09-09T19:14:22;10.03;;;1.97;;
15921;SDS011;8060;50.948;3.146;2022-09-09T19:16:50;15.47;;;1.53;;
15921;SDS011;8060;50.948;3.146;2022-09-09T19:19:20;9.00;;;1.53;;
15921;SDS011;8060;50.948;3.146;2022-09-09T19:21:49;16.10;;;1.93;;
15921;SDS011;8060;50.948;3.146;2022-09-09T19:24:21;6.50;;;1.47;;
15921;SDS011;8060;50.948;3.146;2022-09-09T19:26:50;7.43;;;1.50;;
15921;SDS011;8060;50.948;3.146;2022-09-09T19:29:22;15.00;;;2.73;;
15921;SDS011;8060;50.948;3.146;2022-09-09T19:31:52;10.57;;;2.03;;
15921;SDS011;8060;50.948;3.146;2022-09-09T19:34:42;10.73;;;1.70;;
15921;SDS011;8060;50.948;3.146;2022-09-09T19:37:12;12.00;;;2.53;;
15921;SDS011;8060;50.948;3.146;2022-09-09T19:39:44;11.03;;;1.70;;
15921;SDS011;8060;50.948;3.146;2022-09-09T19:42:12;9.90;;;1.70;;
15921;SDS011;8060;50.948;3.146;2022-09-09T19:44:41;13.77;;;2.20;;
15921;SDS011;8060;50.948;3.146;2022-09-09T19:47:09;18.37;;;2.30;;
15921;SDS011;8060;50.948;3.146;2022-09-09T19:49:38;11.27;;;1.90;;
15921;SDS011;8060;50.948;3.146;2022-09-09T19:52:12;10.53;;;1.80;;
15921;SDS011;8060;50.948;3.146;2022-09-09T19:54:42;12.73;;;2.13;;
15921;SDS011;8060;50.948;3.146;2022-09-09T19:57:10;10.93;;;1.87;;
15921;SDS011;8060;50.948;3.146;2022-09-09T19:59:38;12.57;;;2.73;;
15921;SDS011;8060;50.948;3.146;2022-09-09T20:02:07;8.83;;;2.00;;
